sensor_id;sensor_type;location;lat;lon;timestamp;temperature;humidity
17565;DHT22;62803;52.126;5.596;2022-08-11T00:01:53;20.50;99.90
17565;DHT22;62803;52.126;5.596;2022-08-11T00:04:25;20.40;99.90
17565;DHT22;62803;52.126;5.596;2022-08-11T00:06:54;20.40;99.90
17565;DHT22;62803;52.126;5.596;2022-08-11T00:09:31;20.40;99.90
17565;DHT22;62803;52.126;5.596;2022-08-11T00:12:03;20.40;99.90
17565;DHT22;62803;52.126;5.596;2022-08-11T00:14:33;20.40;99.90
17565;DHT22;62803;52.126;5.596;2022-08-11T00:17:02;20.30;99.90
17565;DHT22;62803;52.126;5.596;2022-08-11T00:19:39;20.30;99.90
17565;DHT22;62803;52.126;5.596;2022-08-11T00:22:46;20.20;99.90
17565;DHT22;62803;52.126;5.596;2022-08-11T00:25:17;20.30;99.90
17565;DHT22;62803;52.126;5.596;2022-08-11T00:27:47;20.20;99.90
17565;DHT22;62803;52.126;5.596;2022-08-11T00:30:16;20.10;99.90
17565;DHT22;62803;52.126;5.596;2022-08-11T00:32:51;20.10;99.90
17565;DHT22;62803;52.126;5.596;2022-08-11T00:35:25;20.10;99.90
17565;DHT22;62803;52.126;5.596;2022-08-11T00:37:54;20.10;99.90
17565;DHT22;62803;52.126;5.596;2022-08-11T00:40:27;20.00;99.90
17565;DHT22;62803;52.126;5.596;2022-08-11T00:43:04;20.00;99.90
17565;DHT22;62803;52.126;5.596;2022-08-11T00:45:42;20.00;99.90
17565;DHT22;62803;52.126;5.596;2022-08-11T00:48:25;20.00;99.90
17565;DHT22;62803;52.126;5.596;2022-08-11T00:51:01;20.00;99.90
17565;DHT22;62803;52.126;5.596;2022-08-11T00:53:45;19.90;99.90
17565;DHT22;62803;52.126;5.596;2022-08-11T01:03:01;19.80;99.90
17565;DHT22;62803;52.126;5.596;2022-08-11T01:05:50;19.80;99.90
17565;DHT22;62803;52.126;5.596;2022-08-11T01:12:01;19.70;99.90
17565;DHT22;62803;52.126;5.596;2022-08-11T01:21:35;19.60;99.90
17565;DHT22;62803;52.126;5.596;2022-08-11T01:31:08;19.40;99.90
17565;DHT22;62803;52.126;5.596;2022-08-11T01:37:15;19.30;99.90
17565;DHT22;62803;52.126;5.596;2022-08-11T01:40:33;19.30;99.90
17565;DHT22;62803;52.126;5.596;2022-08-11T01:43:48;19.30;99.90
17565;DHT22;62803;52.126;5.596;2022-08-11T01:46:45;19.30;99.90
17565;DHT22;62803;52.126;5.596;2022-08-11T01:49:20;19.20;99.90
17565;DHT22;62803;52.126;5.596;2022-08-11T01:52:07;19.20;99.90
17565;DHT22;62803;52.126;5.596;2022-08-11T01:54:42;19.10;99.90
17565;DHT22;62803;52.126;5.596;2022-08-11T01:57:25;19.10;99.90
17565;DHT22;62803;52.126;5.596;2022-08-11T02:00:04;19.10;99.90
17565;DHT22;62803;52.126;5.596;2022-08-11T02:02:38;19.00;99.90
17565;DHT22;62803;52.126;5.596;2022-08-11T02:05:58;19.00;99.90
17565;DHT22;62803;52.126;5.596;2022-08-11T02:08:44;19.00;99.90
17565;DHT22;62803;52.126;5.596;2022-08-11T02:11:22;19.00;99.90
17565;DHT22;62803;52.126;5.596;2022-08-11T02:14:12;18.90;99.90
17565;DHT22;62803;52.126;5.596;2022-08-11T02:17:04;18.90;99.90
17565;DHT22;62803;52.126;5.596;2022-08-11T02:19:41;18.90;99.90
17565;DHT22;62803;52.126;5.596;2022-08-11T02:22:41;18.90;99.90
17565;DHT22;62803;52.126;5.596;2022-08-11T02:25:35;18.80;99.90
17565;DHT22;62803;52.126;5.596;2022-08-11T02:28:07;18.70;99.90
17565;DHT22;62803;52.126;5.596;2022-08-11T02:30:39;18.70;99.90
17565;DHT22;62803;52.126;5.596;2022-08-11T02:33:17;18.70;99.90
17565;DHT22;62803;52.126;5.596;2022-08-11T02:35:58;18.70;99.90
17565;DHT22;62803;52.126;5.596;2022-08-11T02:38:39;18.70;99.90
17565;DHT22;62803;52.126;5.596;2022-08-11T02:41:20;18.60;99.90
17565;DHT22;62803;52.126;5.596;2022-08-11T02:44:16;18.60;99.90
17565;DHT22;62803;52.126;5.596;2022-08-11T02:46:53;18.60;99.90
17565;DHT22;62803;52.126;5.596;2022-08-11T02:49:33;18.60;99.90
17565;DHT22;62803;52.126;5.596;2022-08-11T02:55:50;18.60;99.90
17565;DHT22;62803;52.126;5.596;2022-08-11T02:58:36;18.50;99.90
17565;DHT22;62803;52.126;5.596;2022-08-11T03:01:17;18.50;99.90
17565;DHT22;62803;52.126;5.596;2022-08-11T03:03:52;18.40;99.90
17565;DHT22;62803;52.126;5.596;2022-08-11T03:06:31;18.40;99.90
17565;DHT22;62803;52.126;5.596;2022-08-11T03:09:05;18.30;99.90
17565;DHT22;62803;52.126;5.596;2022-08-11T03:11:49;18.30;99.90
17565;DHT22;62803;52.126;5.596;2022-08-11T03:14:45;18.20;99.90
17565;DHT22;62803;52.126;5.596;2022-08-11T03:17:36;18.20;99.90
17565;DHT22;62803;52.126;5.596;2022-08-11T03:20:19;18.20;99.90
17565;DHT22;62803;52.126;5.596;2022-08-11T03:22:56;18.20;99.90
17565;DHT22;62803;52.126;5.596;2022-08-11T03:25:31;18.10;99.90
17565;DHT22;62803;52.126;5.596;2022-08-11T03:28:08;18.10;99.90
17565;DHT22;62803;52.126;5.596;2022-08-11T03:30:45;18.10;99.90
17565;DHT22;62803;52.126;5.596;2022-08-11T03:33:20;18.10;99.90
17565;DHT22;62803;52.126;5.596;2022-08-11T03:36:14;18.10;99.90
17565;DHT22;62803;52.126;5.596;2022-08-11T03:38:55;18.10;99.90
17565;DHT22;62803;52.126;5.596;2022-08-11T03:41:33;18.10;99.90
17565;DHT22;62803;52.126;5.596;2022-08-11T03:44:28;18.00;99.90
17565;DHT22;62803;52.126;5.596;2022-08-11T03:47:16;17.90;99.90
17565;DHT22;62803;52.126;5.596;2022-08-11T03:49:53;17.90;99.90
17565;DHT22;62803;52.126;5.596;2022-08-11T03:52:27;17.90;99.90
17565;DHT22;62803;52.126;5.596;2022-08-11T03:55:07;17.90;99.90
17565;DHT22;62803;52.126;5.596;2022-08-11T03:58:17;17.80;99.90
17565;DHT22;62803;52.126;5.596;2022-08-11T04:04:19;17.80;99.90
17565;DHT22;62803;52.126;5.596;2022-08-11T04:19:42;17.70;99.90
17565;DHT22;62803;52.126;5.596;2022-08-11T04:22:45;17.60;99.90
17565;DHT22;62803;52.126;5.596;2022-08-11T04:25:48;17.60;99.90
17565;DHT22;62803;52.126;5.596;2022-08-11T04:28:48;17.60;99.90
17565;DHT22;62803;52.126;5.596;2022-08-11T04:31:33;17.50;99.90
17565;DHT22;62803;52.126;5.596;2022-08-11T04:34:29;17.50;99.90
17565;DHT22;62803;52.126;5.596;2022-08-11T04:49:36;17.60;99.90
17565;DHT22;62803;52.126;5.596;2022-08-11T04:52:53;17.60;99.90
17565;DHT22;62803;52.126;5.596;2022-08-11T04:56:06;17.60;99.90
17565;DHT22;62803;52.126;5.596;2022-08-11T05:13:08;17.90;99.90
17565;DHT22;62803;52.126;5.596;2022-08-11T05:30:05;18.20;99.90
17565;DHT22;62803;52.126;5.596;2022-08-11T05:43:14;18.50;99.90
17565;DHT22;62803;52.126;5.596;2022-08-11T05:49:22;18.80;99.90
17565;DHT22;62803;52.126;5.596;2022-08-11T05:52:13;18.90;99.90
17565;DHT22;62803;52.126;5.596;2022-08-11T05:55:03;18.90;99.90
17565;DHT22;62803;52.126;5.596;2022-08-11T05:57:50;19.10;99.90
17565;DHT22;62803;52.126;5.596;2022-08-11T06:00:22;19.10;99.90
17565;DHT22;62803;52.126;5.596;2022-08-11T06:02:52;19.20;99.90
17565;DHT22;62803;52.126;5.596;2022-08-11T06:05:22;19.40;99.90
17565;DHT22;62803;52.126;5.596;2022-08-11T06:07:53;19.50;99.90
17565;DHT22;62803;52.126;5.596;2022-08-11T06:10:27;19.60;99.90
17565;DHT22;62803;52.126;5.596;2022-08-11T06:12:58;19.80;99.90
17565;DHT22;62803;52.126;5.596;2022-08-11T06:15:27;20.00;99.90
17565;DHT22;62803;52.126;5.596;2022-08-11T06:17:56;20.10;99.90
17565;DHT22;62803;52.126;5.596;2022-08-11T06:20:27;20.20;99.90
17565;DHT22;62803;52.126;5.596;2022-08-11T06:23:02;20.30;99.90
17565;DHT22;62803;52.126;5.596;2022-08-11T06:25:30;20.50;99.90
17565;DHT22;62803;52.126;5.596;2022-08-11T06:28:04;20.80;99.90
17565;DHT22;62803;52.126;5.596;2022-08-11T06:30:33;20.90;99.90
17565;DHT22;62803;52.126;5.596;2022-08-11T06:33:07;21.10;99.90
17565;DHT22;62803;52.126;5.596;2022-08-11T06:35:44;21.30;99.90
17565;DHT22;62803;52.126;5.596;2022-08-11T06:38:22;21.40;99.90
17565;DHT22;62803;52.126;5.596;2022-08-11T06:40:54;21.60;99.90
17565;DHT22;62803;52.126;5.596;2022-08-11T06:43:50;21.70;99.90
17565;DHT22;62803;52.126;5.596;2022-08-11T06:46:25;21.90;99.90
17565;DHT22;62803;52.126;5.596;2022-08-11T06:48:53;22.00;99.90
17565;DHT22;62803;52.126;5.596;2022-08-11T06:51:23;22.10;99.90
17565;DHT22;62803;52.126;5.596;2022-08-11T06:53:52;22.30;99.90
17565;DHT22;62803;52.126;5.596;2022-08-11T06:56:28;22.40;99.90
17565;DHT22;62803;52.126;5.596;2022-08-11T06:59:15;22.40;99.90
17565;DHT22;62803;52.126;5.596;2022-08-11T07:02:10;22.50;99.90
17565;DHT22;62803;52.126;5.596;2022-08-11T07:04:42;22.60;99.90
17565;DHT22;62803;52.126;5.596;2022-08-11T07:07:43;22.80;99.90
17565;DHT22;62803;52.126;5.596;2022-08-11T07:10:46;22.90;99.90
17565;DHT22;62803;52.126;5.596;2022-08-11T07:13:37;23.10;99.90
17565;DHT22;62803;52.126;5.596;2022-08-11T07:16:26;23.10;99.90
17565;DHT22;62803;52.126;5.596;2022-08-11T07:18:56;23.40;99.90
17565;DHT22;62803;52.126;5.596;2022-08-11T07:21:45;23.60;99.90
17565;DHT22;62803;52.126;5.596;2022-08-11T07:24:37;23.80;99.90
17565;DHT22;62803;52.126;5.596;2022-08-11T07:27:29;24.00;99.90
17565;DHT22;62803;52.126;5.596;2022-08-11T07:30:16;24.10;99.90
17565;DHT22;62803;52.126;5.596;2022-08-11T07:33:00;24.20;99.90
17565;DHT22;62803;52.126;5.596;2022-08-11T07:35:34;24.20;99.90
17565;DHT22;62803;52.126;5.596;2022-08-11T07:38:06;24.50;99.90
17565;DHT22;62803;52.126;5.596;2022-08-11T07:40:38;24.60;99.90
17565;DHT22;62803;52.126;5.596;2022-08-11T07:43:09;24.80;99.90
17565;DHT22;62803;52.126;5.596;2022-08-11T07:45:42;25.00;99.90
17565;DHT22;62803;52.126;5.596;2022-08-11T07:48:27;25.20;99.90
17565;DHT22;62803;52.126;5.596;2022-08-11T07:51:13;25.40;99.90
17565;DHT22;62803;52.126;5.596;2022-08-11T07:54:01;25.60;99.90
17565;DHT22;62803;52.126;5.596;2022-08-11T07:56:33;25.80;99.90
17565;DHT22;62803;52.126;5.596;2022-08-11T07:59:01;25.90;99.90
17565;DHT22;62803;52.126;5.596;2022-08-11T08:01:46;26.10;99.90
17565;DHT22;62803;52.126;5.596;2022-08-11T08:04:36;26.30;99.90
17565;DHT22;62803;52.126;5.596;2022-08-11T08:07:24;26.40;99.90
17565;DHT22;62803;52.126;5.596;2022-08-11T08:10:09;26.50;99.90
17565;DHT22;62803;52.126;5.596;2022-08-11T08:13:01;26.50;99.90
17565;DHT22;62803;52.126;5.596;2022-08-11T08:15:46;26.70;99.90
17565;DHT22;62803;52.126;5.596;2022-08-11T08:18:33;26.90;99.90
17565;DHT22;62803;52.126;5.596;2022-08-11T08:21:04;27.00;99.90
17565;DHT22;62803;52.126;5.596;2022-08-11T08:23:45;27.00;99.90
17565;DHT22;62803;52.126;5.596;2022-08-11T08:26:14;27.10;99.90
17565;DHT22;62803;52.126;5.596;2022-08-11T08:29:02;27.20;99.90
17565;DHT22;62803;52.126;5.596;2022-08-11T08:31:45;27.40;99.90
17565;DHT22;62803;52.126;5.596;2022-08-11T08:34:14;27.40;99.90
17565;DHT22;62803;52.126;5.596;2022-08-11T08:36:42;27.50;99.90
17565;DHT22;62803;52.126;5.596;2022-08-11T08:39:12;27.60;99.90
17565;DHT22;62803;52.126;5.596;2022-08-11T08:41:42;27.50;99.90
17565;DHT22;62803;52.126;5.596;2022-08-11T08:44:12;27.60;99.90
17565;DHT22;62803;52.126;5.596;2022-08-11T08:46:43;27.80;99.90
17565;DHT22;62803;52.126;5.596;2022-08-11T08:49:14;27.90;99.90
17565;DHT22;62803;52.126;5.596;2022-08-11T08:51:43;28.20;99.90
17565;DHT22;62803;52.126;5.596;2022-08-11T08:54:19;28.30;99.90
17565;DHT22;62803;52.126;5.596;2022-08-11T08:56:48;28.40;99.90
17565;DHT22;62803;52.126;5.596;2022-08-11T08:59:29;28.50;99.90
17565;DHT22;62803;52.126;5.596;2022-08-11T09:02:01;28.50;99.90
17565;DHT22;62803;52.126;5.596;2022-08-11T09:04:29;28.70;99.90
17565;DHT22;62803;52.126;5.596;2022-08-11T09:07:02;28.80;99.90
17565;DHT22;62803;52.126;5.596;2022-08-11T09:09:32;29.00;99.90
17565;DHT22;62803;52.126;5.596;2022-08-11T09:12:01;29.10;99.90
17565;DHT22;62803;52.126;5.596;2022-08-11T09:14:35;29.40;99.90
17565;DHT22;62803;52.126;5.596;2022-08-11T09:17:21;29.60;99.90
17565;DHT22;62803;52.126;5.596;2022-08-11T09:19:53;29.60;99.90
17565;DHT22;62803;52.126;5.596;2022-08-11T09:22:25;29.60;99.90
17565;DHT22;62803;52.126;5.596;2022-08-11T09:25:10;29.60;99.90
17565;DHT22;62803;52.126;5.596;2022-08-11T09:27:55;29.90;99.90
17565;DHT22;62803;52.126;5.596;2022-08-11T09:30:25;30.00;99.90
17565;DHT22;62803;52.126;5.596;2022-08-11T09:32:55;30.00;99.90
17565;DHT22;62803;52.126;5.596;2022-08-11T09:35:26;30.10;99.90
17565;DHT22;62803;52.126;5.596;2022-08-11T09:37:54;30.00;99.90
17565;DHT22;62803;52.126;5.596;2022-08-11T09:40:40;30.20;99.90
17565;DHT22;62803;52.126;5.596;2022-08-11T09:43:10;30.20;99.90
17565;DHT22;62803;52.126;5.596;2022-08-11T09:45:59;30.30;99.90
17565;DHT22;62803;52.126;5.596;2022-08-11T09:48:30;30.30;99.90
17565;DHT22;62803;52.126;5.596;2022-08-11T09:51:01;30.70;99.90
17565;DHT22;62803;52.126;5.596;2022-08-11T09:53:44;30.80;99.90
17565;DHT22;62803;52.126;5.596;2022-08-11T09:56:15;30.80;99.90
17565;DHT22;62803;52.126;5.596;2022-08-11T09:59:00;30.70;99.90
17565;DHT22;62803;52.126;5.596;2022-08-11T10:01:38;30.90;99.90
17565;DHT22;62803;52.126;5.596;2022-08-11T10:04:11;30.90;99.90
17565;DHT22;62803;52.126;5.596;2022-08-11T10:06:43;30.90;99.90
17565;DHT22;62803;52.126;5.596;2022-08-11T10:09:37;30.90;99.90
17565;DHT22;62803;52.126;5.596;2022-08-11T10:12:15;31.10;99.90
17565;DHT22;62803;52.126;5.596;2022-08-11T10:14:48;31.20;99.90
17565;DHT22;62803;52.126;5.596;2022-08-11T10:17:41;31.30;99.90
17565;DHT22;62803;52.126;5.596;2022-08-11T10:20:32;31.40;99.90
17565;DHT22;62803;52.126;5.596;2022-08-11T10:23:01;31.60;99.90
17565;DHT22;62803;52.126;5.596;2022-08-11T10:26:01;31.60;99.90
17565;DHT22;62803;52.126;5.596;2022-08-11T10:28:46;31.80;99.90
17565;DHT22;62803;52.126;5.596;2022-08-11T10:31:13;31.80;99.90
17565;DHT22;62803;52.126;5.596;2022-08-11T10:34:01;31.90;99.90
17565;DHT22;62803;52.126;5.596;2022-08-11T10:36:31;32.20;99.90
17565;DHT22;62803;52.126;5.596;2022-08-11T10:39:01;32.10;99.90
17565;DHT22;62803;52.126;5.596;2022-08-11T10:41:29;32.00;99.90
17565;DHT22;62803;52.126;5.596;2022-08-11T10:44:16;31.90;99.90
17565;DHT22;62803;52.126;5.596;2022-08-11T10:46:45;31.80;99.90
17565;DHT22;62803;52.126;5.596;2022-08-11T10:49:32;31.80;99.90
17565;DHT22;62803;52.126;5.596;2022-08-11T10:52:00;32.00;99.90
17565;DHT22;62803;52.126;5.596;2022-08-11T10:54:45;32.20;99.90
17565;DHT22;62803;52.126;5.596;2022-08-11T10:57:30;32.60;99.90
17565;DHT22;62803;52.126;5.596;2022-08-11T11:00:15;32.30;99.90
17565;DHT22;62803;52.126;5.596;2022-08-11T11:02:44;32.30;99.90
17565;DHT22;62803;52.126;5.596;2022-08-11T11:05:23;32.50;99.90
17565;DHT22;62803;52.126;5.596;2022-08-11T11:07:56;32.80;99.90
17565;DHT22;62803;52.126;5.596;2022-08-11T11:10:30;32.60;99.90
17565;DHT22;62803;52.126;5.596;2022-08-11T11:13:00;32.60;99.90
17565;DHT22;62803;52.126;5.596;2022-08-11T11:15:46;33.00;99.90
17565;DHT22;62803;52.126;5.596;2022-08-11T11:18:35;33.10;99.90
17565;DHT22;62803;52.126;5.596;2022-08-11T11:21:06;33.10;99.90
17565;DHT22;62803;52.126;5.596;2022-08-11T11:23:39;32.80;99.90
17565;DHT22;62803;52.126;5.596;2022-08-11T11:26:33;32.70;99.90
17565;DHT22;62803;52.126;5.596;2022-08-11T11:29:32;32.80;99.90
17565;DHT22;62803;52.126;5.596;2022-08-11T11:32:23;33.00;99.90
17565;DHT22;62803;52.126;5.596;2022-08-11T11:35:16;33.00;99.90
17565;DHT22;62803;52.126;5.596;2022-08-11T11:37:48;33.50;99.90
17565;DHT22;62803;52.126;5.596;2022-08-11T11:40:18;33.80;99.90
17565;DHT22;62803;52.126;5.596;2022-08-11T11:42:48;34.30;99.90
17565;DHT22;62803;52.126;5.596;2022-08-11T11:45:18;34.50;99.90
17565;DHT22;62803;52.126;5.596;2022-08-11T11:47:49;34.10;99.90
17565;DHT22;62803;52.126;5.596;2022-08-11T11:50:22;34.00;99.90
17565;DHT22;62803;52.126;5.596;2022-08-11T11:52:52;34.00;99.90
17565;DHT22;62803;52.126;5.596;2022-08-11T11:55:22;34.40;99.90
17565;DHT22;62803;52.126;5.596;2022-08-11T11:57:52;34.40;99.90
17565;DHT22;62803;52.126;5.596;2022-08-11T12:00:42;34.00;99.90
17565;DHT22;62803;52.126;5.596;2022-08-11T12:03:27;33.90;99.90
17565;DHT22;62803;52.126;5.596;2022-08-11T12:05:55;34.00;99.90
17565;DHT22;62803;52.126;5.596;2022-08-11T12:08:42;34.20;99.90
17565;DHT22;62803;52.126;5.596;2022-08-11T12:11:15;34.50;99.90
17565;DHT22;62803;52.126;5.596;2022-08-11T12:14:05;34.50;99.90
17565;DHT22;62803;52.126;5.596;2022-08-11T12:16:35;34.90;99.90
17565;DHT22;62803;52.126;5.596;2022-08-11T12:19:05;34.90;99.90
17565;DHT22;62803;52.126;5.596;2022-08-11T12:21:40;34.70;99.90
17565;DHT22;62803;52.126;5.596;2022-08-11T12:24:34;34.90;99.90
17565;DHT22;62803;52.126;5.596;2022-08-11T12:27:20;34.70;99.90
17565;DHT22;62803;52.126;5.596;2022-08-11T12:29:50;34.90;99.90
17565;DHT22;62803;52.126;5.596;2022-08-11T12:32:19;34.70;99.90
17565;DHT22;62803;52.126;5.596;2022-08-11T12:34:47;35.10;99.90
17565;DHT22;62803;52.126;5.596;2022-08-11T12:37:19;35.80;99.90
17565;DHT22;62803;52.126;5.596;2022-08-11T12:39:52;36.10;99.90
17565;DHT22;62803;52.126;5.596;2022-08-11T12:42:40;36.60;99.60
17565;DHT22;62803;52.126;5.596;2022-08-11T12:45:25;37.60;98.00
17565;DHT22;62803;52.126;5.596;2022-08-11T12:48:14;38.40;94.90
17565;DHT22;62803;52.126;5.596;2022-08-11T12:51:02;39.90;93.50
17565;DHT22;62803;52.126;5.596;2022-08-11T12:54:06;41.10;92.00
17565;DHT22;62803;52.126;5.596;2022-08-11T12:56:40;42.50;88.60
17565;DHT22;62803;52.126;5.596;2022-08-11T12:59:28;44.20;83.80
17565;DHT22;62803;52.126;5.596;2022-08-11T13:02:16;45.60;80.70
17565;DHT22;62803;52.126;5.596;2022-08-11T13:05:01;45.80;73.70
17565;DHT22;62803;52.126;5.596;2022-08-11T13:07:29;46.90;67.80
17565;DHT22;62803;52.126;5.596;2022-08-11T13:10:00;48.20;67.70
17565;DHT22;62803;52.126;5.596;2022-08-11T13:12:30;48.90;62.70
17565;DHT22;62803;52.126;5.596;2022-08-11T13:15:19;49.20;62.50
17565;DHT22;62803;52.126;5.596;2022-08-11T13:17:50;49.30;59.10
17565;DHT22;62803;52.126;5.596;2022-08-11T13:20:19;49.30;58.60
17565;DHT22;62803;52.126;5.596;2022-08-11T13:22:49;50.00;57.60
17565;DHT22;62803;52.126;5.596;2022-08-11T13:25:17;48.90;55.70
17565;DHT22;62803;52.126;5.596;2022-08-11T13:27:50;46.50;57.20
17565;DHT22;62803;52.126;5.596;2022-08-11T13:30:22;44.30;57.70
17565;DHT22;62803;52.126;5.596;2022-08-11T13:33:08;45.30;57.90
17565;DHT22;62803;52.126;5.596;2022-08-11T13:35:38;45.30;56.30
17565;DHT22;62803;52.126;5.596;2022-08-11T13:38:11;46.70;56.80
17565;DHT22;62803;52.126;5.596;2022-08-11T13:40:41;46.00;56.20
17565;DHT22;62803;52.126;5.596;2022-08-11T13:43:12;47.30;55.90
17565;DHT22;62803;52.126;5.596;2022-08-11T13:45:43;47.10;54.60
17565;DHT22;62803;52.126;5.596;2022-08-11T13:48:15;46.90;55.10
17565;DHT22;62803;52.126;5.596;2022-08-11T13:50:49;48.10;55.70
17565;DHT22;62803;52.126;5.596;2022-08-11T13:53:36;49.30;54.00
17565;DHT22;62803;52.126;5.596;2022-08-11T13:56:15;49.80;53.50
17565;DHT22;62803;52.126;5.596;2022-08-11T13:58:43;50.80;52.60
17565;DHT22;62803;52.126;5.596;2022-08-11T14:01:12;51.40;51.80
17565;DHT22;62803;52.126;5.596;2022-08-11T14:03:41;52.00;53.00
17565;DHT22;62803;52.126;5.596;2022-08-11T14:06:09;53.00;51.80
17565;DHT22;62803;52.126;5.596;2022-08-11T14:08:37;53.80;51.60
17565;DHT22;62803;52.126;5.596;2022-08-11T14:11:06;53.00;49.50
17565;DHT22;62803;52.126;5.596;2022-08-11T14:13:55;51.50;49.70
17565;DHT22;62803;52.126;5.596;2022-08-11T14:16:26;50.70;49.90
17565;DHT22;62803;52.126;5.596;2022-08-11T14:19:24;50.60;50.00
17565;DHT22;62803;52.126;5.596;2022-08-11T14:21:53;51.80;50.50
17565;DHT22;62803;52.126;5.596;2022-08-11T14:24:49;51.40;50.60
17565;DHT22;62803;52.126;5.596;2022-08-11T14:27:24;50.80;50.20
17565;DHT22;62803;52.126;5.596;2022-08-11T14:30:01;51.40;48.60
17565;DHT22;62803;52.126;5.596;2022-08-11T14:32:30;50.70;48.90
17565;DHT22;62803;52.126;5.596;2022-08-11T14:34:57;51.10;48.90
17565;DHT22;62803;52.126;5.596;2022-08-11T14:37:33;51.70;49.70
17565;DHT22;62803;52.126;5.596;2022-08-11T14:40:03;52.20;48.90
17565;DHT22;62803;52.126;5.596;2022-08-11T14:42:51;51.80;48.50
17565;DHT22;62803;52.126;5.596;2022-08-11T14:45:38;51.80;47.90
17565;DHT22;62803;52.126;5.596;2022-08-11T14:48:23;52.30;47.60
17565;DHT22;62803;52.126;5.596;2022-08-11T14:50:50;52.20;47.90
17565;DHT22;62803;52.126;5.596;2022-08-11T14:53:21;51.00;47.50
17565;DHT22;62803;52.126;5.596;2022-08-11T14:55:49;49.00;47.40
17565;DHT22;62803;52.126;5.596;2022-08-11T14:58:34;49.50;48.60
17565;DHT22;62803;52.126;5.596;2022-08-11T15:01:03;50.30;48.30
17565;DHT22;62803;52.126;5.596;2022-08-11T15:03:51;51.00;47.70
17565;DHT22;62803;52.126;5.596;2022-08-11T15:06:18;49.80;47.80
17565;DHT22;62803;52.126;5.596;2022-08-11T15:08:48;49.60;48.00
17565;DHT22;62803;52.126;5.596;2022-08-11T15:11:27;48.20;48.40
17565;DHT22;62803;52.126;5.596;2022-08-11T15:14:13;46.50;52.00
17565;DHT22;62803;52.126;5.596;2022-08-11T15:17:02;46.10;50.20
17565;DHT22;62803;52.126;5.596;2022-08-11T15:19:42;47.20;49.70
17565;DHT22;62803;52.126;5.596;2022-08-11T15:22:39;48.30;49.20
17565;DHT22;62803;52.126;5.596;2022-08-11T15:25:25;49.30;48.30
17565;DHT22;62803;52.126;5.596;2022-08-11T15:27:53;47.20;48.80
17565;DHT22;62803;52.126;5.596;2022-08-11T15:30:39;46.00;50.20
17565;DHT22;62803;52.126;5.596;2022-08-11T15:33:26;45.30;50.10
17565;DHT22;62803;52.126;5.596;2022-08-11T15:36:14;46.70;50.30
17565;DHT22;62803;52.126;5.596;2022-08-11T15:39:02;48.30;49.10
17565;DHT22;62803;52.126;5.596;2022-08-11T15:41:35;47.50;48.80
17565;DHT22;62803;52.126;5.596;2022-08-11T15:47:37;47.10;49.70
17565;DHT22;62803;52.126;5.596;2022-08-11T15:50:10;47.10;49.70
17565;DHT22;62803;52.126;5.596;2022-08-11T15:52:47;45.80;49.50
17565;DHT22;62803;52.126;5.596;2022-08-11T15:55:15;42.30;50.60
17565;DHT22;62803;52.126;5.596;2022-08-11T15:57:44;39.70;52.10
17565;DHT22;62803;52.126;5.596;2022-08-11T16:00:30;38.20;53.40
17565;DHT22;62803;52.126;5.596;2022-08-11T16:03:19;36.40;55.60
17565;DHT22;62803;52.126;5.596;2022-08-11T16:06:05;35.30;56.80
17565;DHT22;62803;52.126;5.596;2022-08-11T16:08:34;34.50;57.90
17565;DHT22;62803;52.126;5.596;2022-08-11T16:11:02;33.80;59.40
17565;DHT22;62803;52.126;5.596;2022-08-11T16:13:35;33.50;60.20
17565;DHT22;62803;52.126;5.596;2022-08-11T16:16:24;33.40;60.30
17565;DHT22;62803;52.126;5.596;2022-08-11T16:18:55;33.10;60.80
17565;DHT22;62803;52.126;5.596;2022-08-11T16:21:26;33.10;61.90
17565;DHT22;62803;52.126;5.596;2022-08-11T16:23:56;33.00;63.90
17565;DHT22;62803;52.126;5.596;2022-08-11T16:26:25;32.90;62.80
17565;DHT22;62803;52.126;5.596;2022-08-11T16:28:55;32.80;61.80
17565;DHT22;62803;52.126;5.596;2022-08-11T16:31:23;32.70;63.00
17565;DHT22;62803;52.126;5.596;2022-08-11T16:33:54;32.70;62.90
17565;DHT22;62803;52.126;5.596;2022-08-11T16:36:34;32.50;64.30
17565;DHT22;62803;52.126;5.596;2022-08-11T16:39:22;32.40;66.00
17565;DHT22;62803;52.126;5.596;2022-08-11T16:41:51;32.40;63.80
17565;DHT22;62803;52.126;5.596;2022-08-11T16:44:37;32.30;63.50
17565;DHT22;62803;52.126;5.596;2022-08-11T16:47:22;32.20;64.70
17565;DHT22;62803;52.126;5.596;2022-08-11T16:49:51;32.00;64.50
17565;DHT22;62803;52.126;5.596;2022-08-11T16:52:21;32.00;67.10
17565;DHT22;62803;52.126;5.596;2022-08-11T16:54:49;32.00;66.20
17565;DHT22;62803;52.126;5.596;2022-08-11T16:57:21;31.90;66.10
17565;DHT22;62803;52.126;5.596;2022-08-11T17:00:10;31.80;65.80
17565;DHT22;62803;52.126;5.596;2022-08-11T17:02:46;31.90;66.40
17565;DHT22;62803;52.126;5.596;2022-08-11T17:05:32;31.80;65.90
17565;DHT22;62803;52.126;5.596;2022-08-11T17:08:20;31.70;65.70
17565;DHT22;62803;52.126;5.596;2022-08-11T17:11:07;31.60;68.30
17565;DHT22;62803;52.126;5.596;2022-08-11T17:14:11;31.60;67.00
17565;DHT22;62803;52.126;5.596;2022-08-11T17:16:40;31.60;68.80
17565;DHT22;62803;52.126;5.596;2022-08-11T17:19:10;31.50;67.70
17565;DHT22;62803;52.126;5.596;2022-08-11T17:21:51;31.40;67.00
17565;DHT22;62803;52.126;5.596;2022-08-11T17:24:40;31.30;67.50
17565;DHT22;62803;52.126;5.596;2022-08-11T17:27:11;31.20;68.20
17565;DHT22;62803;52.126;5.596;2022-08-11T17:29:43;31.20;68.20
17565;DHT22;62803;52.126;5.596;2022-08-11T17:32:14;31.10;68.10
17565;DHT22;62803;52.126;5.596;2022-08-11T17:35:02;31.00;67.60
17565;DHT22;62803;52.126;5.596;2022-08-11T17:37:50;30.90;68.10
17565;DHT22;62803;52.126;5.596;2022-08-11T17:40:21;30.90;68.20
17565;DHT22;62803;52.126;5.596;2022-08-11T17:42:53;30.90;68.50
17565;DHT22;62803;52.126;5.596;2022-08-11T17:45:38;30.90;70.50
17565;DHT22;62803;52.126;5.596;2022-08-11T17:48:25;30.80;69.20
17565;DHT22;62803;52.126;5.596;2022-08-11T17:50:55;30.80;68.80
17565;DHT22;62803;52.126;5.596;2022-08-11T17:53:24;30.70;69.20
17565;DHT22;62803;52.126;5.596;2022-08-11T17:56:10;30.70;72.10
17565;DHT22;62803;52.126;5.596;2022-08-11T17:58:58;30.70;70.20
17565;DHT22;62803;52.126;5.596;2022-08-11T18:01:45;30.70;73.80
17565;DHT22;62803;52.126;5.596;2022-08-11T18:04:14;30.60;71.60
17565;DHT22;62803;52.126;5.596;2022-08-11T18:13:36;30.20;71.60
17565;DHT22;62803;52.126;5.596;2022-08-11T18:16:36;30.10;72.30
17565;DHT22;62803;52.126;5.596;2022-08-11T18:32:53;29.70;74.20
17565;DHT22;62803;52.126;5.596;2022-08-11T18:35:37;29.60;74.90
17565;DHT22;62803;52.126;5.596;2022-08-11T18:38:26;29.50;74.40
17565;DHT22;62803;52.126;5.596;2022-08-11T18:41:13;29.40;74.60
17565;DHT22;62803;52.126;5.596;2022-08-11T18:44:01;29.30;75.80
17565;DHT22;62803;52.126;5.596;2022-08-11T18:46:49;29.20;76.00
17565;DHT22;62803;52.126;5.596;2022-08-11T18:49:38;29.20;76.50
17565;DHT22;62803;52.126;5.596;2022-08-11T18:52:27;29.10;76.50